Aviosuperficie Airone LICL

Flugplatz Daten

Name: Aviosuperficie Airone

Ident: LICL

Lat: 37,11397667

Long: 14,21420574

Platzhöhe: 82 ft

IataCode:

City: Gela

Metar

2021/08/05 14:55
LICL 051455Z 26011KT 3000 BR NSC 30/27 Q1010 RMK FEW FEW060 QUK 2 QUL 0 VIS MAR 3 KM VIS MIN 3000

Taf

Gewünschte Webcam nicht vorhanden? Dann fügen Sie eine hinzu. Sie wird dann so schnell wie möglich freigeschaltet
Url: Title: